Friday, April 25, 2014
02:32 UTC
  |  Log In   |  Register Free
Airport Search:

Fort Smith Regional Airport
(KFSM)

FAA data valid effective April 3, 2014 until May 29, 2014 (unless otherwise noted).

 
 
 
 
 
 
 
 
 
 
 
 
 
 

Current Aviation Weather for Fort Smith Regional Airport (KFSM)

The most recent METAR observation for KFSM was updated at: 0153 UTC
METAR Summary (Translated METAR)
KFSM
250153Z 30011KT 10SM CLR 18/08 A2987 RMK AO2 PK WND 28026/0054 SLP110 T01780083
KJSV
(22.2 nm NW from KFSM)
182250Z AUTO 20012G15KT 10SM CLR 23/05 A2954 RMK AO2
TAF Summary (Translated TAF)
KFSM
250057Z 2501/2524 29020G28KT P6SM SKC FM250300 VRB02KT P6SM SKC FM251900 16005KT P6SM SKC
  Airport Weather Conditions for KFSM

 Current Weather at FSM
64° F
Fair
Northwest winds at 12.7 mph
FSM NOAA Radar

Pressure: 29.87 in
Humidity: 54%
Wind: Northwest at 12.7 MPH (11 KT)
Dew Point: 46.9°F
Visibility: 10.00 mi


Airport Weather Forecast for KFSM

Translated METAR and TAF for KFSM
Translated METAR for KFSM (0232 UTC 25 April 2014)
found at http://aviationweather.gov/adds/metars/
 
METAR text: KFSM 250153Z 30011KT 10SM CLR 18/08 A2987 RMK AO2 PK WND 28026/0054 SLP110 T01780083
Conditions at: KFSM (FORT SMITH , AR, US) observed 0153 UTC 25 April 2014
Temperature: 17.8°C (64°F)
Dewpoint: 8.3°C (47°F) [RH = 54%]
Pressure (altimeter): 29.87 inches Hg (1011.6 mb)
[Sea-level pressure: 1011.0 mb]
Winds: from the WNW (300 degrees) at 13 MPH (11 knots; 5.7 m/s)
Visibility: 10 or more miles (16+ km)
Ceiling: at least 12,000 feet AGL
Clouds: sky clear below 12,000 feet AGL
Weather: no significant weather observed at this time
Translated TAF for KFSM
Forecast for: KFSM (FORT SMITH , AR, US)
TAF Text: KFSM 250211Z 2502/2524 30011KT P6SM SKC
Forecast period: 0200 to 0300 UTC 25 April 2014
Forecast type: FROM: standard forecast or significant change
Winds: from the WNW (300 degrees) at 13 MPH (11 knots; 5.7 m/s)
Visibility: 6 or more miles (10+ km)
Clouds: clear skies
Weather: no significant weather forecast for this period
TAF Text: FM250300 VRB02KT P6SM SKC
Forecast period: 0300 to 1900 UTC 25 April 2014
Forecast type: FROM: standard forecast or significant change
Winds: variable direction winds at 2 MPH (2 knots; 1.0 m/s)
Visibility: 6 or more miles (10+ km)
Clouds: clear skies
Weather: no significant weather forecast for this period
TAF Text: FM251900 16005KT P6SM SKC
Forecast period: 1900 UTC 25 April 2014 to 0000 UTC 26 April 2014
Forecast type: FROM: standard forecast or significant change
Winds: from the SSE (160 degrees) at 6 MPH (5 knots; 2.6 m/s)
Visibility: 6 or more miles (10+ km)
Clouds: clear skies
Weather: no significant weather forecast for this period

Find All Airport Services Find A Hotel Find A Rental Car Find A Golf Course Find A Restaurant $100 Hamburger



FBO's on the Field
FBO Company Facility Photos Services Transportation Aviation Fuel Prices: Prices include tax
Catering Weather Repair Courtesy Rental Type 100LL JetA JetA+ MOGAS 8087
 
TAC Air - FSM

This FBO has not yet been rated
FS:Independent
Last Updated: Apr-11
Login to update fuel prices
SS:
Contact TAC Air - FSMMore FBO Information
 
Add another FBO Facility Photos Catering Weather Repair Courtesy Rental Type 100LL JetA JetA+ MOGAS 8087
Services Transportation Aviation Fuel Prices: Prices include tax


GlobalAir.com Airport Resource Center model-print
model-print
model-print
model-print